createdAt,value
2022-08-07T00:02:36.291Z,102408.28
2022-08-07T00:05:11.210Z,102409.06
2022-08-07T00:07:43.857Z,102408.66
2022-08-07T00:10:26.982Z,102411.44
2022-08-07T00:13:23.488Z,102397.97
2022-08-07T00:15:58.654Z,102405.88
2022-08-07T00:18:33.195Z,102377.03
2022-08-07T00:21:55.969Z,102401.91
2022-08-07T00:24:01.934Z,102374.25
2022-08-07T00:26:58.954Z,102393.22
2022-08-07T00:29:31.271Z,102395.59
2022-08-07T00:32:07.549Z,102369.91
2022-08-07T00:34:41.320Z,102375.06
2022-08-07T00:37:13.853Z,102360.81
2022-08-07T00:39:54.654Z,102371.88
2022-08-07T00:42:29.163Z,102377.84
2022-08-07T00:45:02.002Z,102313.38
2022-08-07T00:48:09.324Z,102365.94
2022-08-07T00:50:46.708Z,102388.09
2022-08-07T00:53:39.162Z,102370.72
2022-08-07T00:56:33.830Z,102308.63
2022-08-07T00:59:07.044Z,102335.50
2022-08-07T01:01:43.969Z,102360.00
2022-08-07T01:04:24.546Z,102356.06
2022-08-07T01:06:57.839Z,102357.25
2022-08-07T01:10:04.879Z,102344.19
2022-08-07T01:12:30.131Z,102338.63
2022-08-07T01:15:05.946Z,102350.53
2022-08-07T01:17:40.045Z,102351.28
2022-08-07T01:20:17.133Z,102362.34
2022-08-07T01:23:00.535Z,102342.59
2022-08-07T01:25:55.492Z,102319.66
2022-08-07T01:28:29.913Z,102350.88
2022-08-07T01:31:03.980Z,102340.59
2022-08-07T01:33:55.570Z,102321.22
2022-08-07T01:36:34.022Z,102337.00
2022-08-07T01:39:10.005Z,102339.41
2022-08-07T01:42:06.116Z,102331.53
2022-08-07T01:44:37.387Z,102347.31
2022-08-07T01:47:14.292Z,102337.00
2022-08-07T01:50:05.978Z,102342.53
2022-08-07T01:52:49.385Z,102345.69
2022-08-07T01:55:47.383Z,102300.63
2022-08-07T01:58:27.530Z,102329.09
2022-08-07T02:01:59.425Z,102330.69
2022-08-07T02:04:11.789Z,102306.22
2022-08-07T02:06:45.956Z,102343.34
2022-08-07T02:09:43.604Z,102315.69
2022-08-07T02:12:19.033Z,102340.16
2022-08-07T02:14:57.490Z,102319.25
2022-08-07T02:17:34.186Z,102303.41
2022-08-07T02:20:19.943Z,102300.22
2022-08-07T02:23:02.863Z,102328.28
2022-08-07T02:26:31.202Z,102333.84
2022-08-07T02:28:35.171Z,102334.63
2022-08-07T02:31:18.769Z,102327.06
2022-08-07T02:34:11.436Z,102285.56
2022-08-07T02:36:50.768Z,102334.56
2022-08-07T02:39:43.324Z,102323.13
2022-08-07T02:42:19.935Z,102319.53
2022-08-07T02:44:54.899Z,102314.78
2022-08-07T02:47:35.147Z,102325.44
2022-08-07T02:50:18.659Z,102325.00
2022-08-07T02:53:03.544Z,102322.66
2022-08-07T02:56:03.622Z,102301.34
2022-08-07T02:58:47.240Z,102306.44
2022-08-07T03:01:35.700Z,102328.19
2022-08-07T03:04:13.883Z,102316.34
2022-08-07T03:06:49.524Z,102313.13
2022-08-07T03:09:43.585Z,102312.38
2022-08-07T03:12:22.715Z,102318.66
2022-08-07T03:15:08.015Z,102306.72
2022-08-07T03:17:53.974Z,102298.78
2022-08-07T03:20:28.044Z,102284.50
2022-08-07T03:23:03.104Z,102301.91
2022-08-07T03:25:42.327Z,102324.06
2022-08-07T03:28:37.401Z,102325.72
2022-08-07T03:31:24.389Z,102305.13
2022-08-07T03:34:02.634Z,102319.72
2022-08-07T03:36:40.356Z,102301.91
2022-08-07T03:39:17.627Z,102302.69
2022-08-07T03:42:11.553Z,102288.84
2022-08-07T03:44:53.105Z,102314.47
2022-08-07T03:47:29.677Z,102314.56
2022-08-07T03:50:22.950Z,102327.13
2022-08-07T03:53:00.245Z,102297.94
2022-08-07T03:55:53.181Z,102269.00
2022-08-07T03:59:07.478Z,102320.44
2022-08-07T04:01:21.290Z,102311.22
2022-08-07T04:03:55.567Z,102310.03
2022-08-07T04:06:38.089Z,102323.91
2022-08-07T04:09:15.410Z,102308.13
2022-08-07T04:12:24.514Z,102320.78
2022-08-07T04:14:47.842Z,102323.19
2022-08-07T04:17:22.105Z,102335.81
2022-08-07T04:19:55.250Z,102319.22
2022-08-07T04:22:30.128Z,102333.88
2022-08-07T04:25:03.538Z,102300.63
2022-08-07T04:27:46.215Z,102335.03
2022-08-07T04:30:44.284Z,102328.75
2022-08-07T04:33:27.992Z,102337.47
2022-08-07T04:36:01.234Z,102331.97
2022-08-07T04:38:39.459Z,102341.94
2022-08-07T04:41:18.213Z,102316.97
2022-08-07T04:44:12.601Z,102334.81
2022-08-07T04:47:56.644Z,102345.50
2022-08-07T04:50:25.283Z,102351.84
2022-08-07T04:53:27.679Z,102345.97
2022-08-07T04:58:09.708Z,102343.25
2022-08-07T05:00:12.593Z,102363.03
2022-08-07T05:02:57.072Z,102357.53
2022-08-07T05:06:16.481Z,102347.66
2022-08-07T05:09:06.278Z,102344.16
2022-08-07T05:11:57.422Z,102339.44
2022-08-07T05:14:53.824Z,102335.09
2022-08-07T05:17:52.263Z,102337.09
2022-08-07T05:20:33.684Z,102352.13
2022-08-07T05:23:15.983Z,102340.69
2022-08-07T05:26:12.975Z,102360.06
2022-08-07T05:28:51.322Z,102333.16
2022-08-07T05:31:35.129Z,102346.56
2022-08-07T05:34:15.668Z,102341.00
2022-08-07T05:36:54.899Z,102346.44
2022-08-07T05:40:13.900Z,102379.13
2022-08-07T05:42:33.886Z,102377.09
2022-08-07T05:45:14.625Z,102373.09
2022-08-07T05:48:05.731Z,102382.53
2022-08-07T05:50:42.856Z,102397.03
2022-08-07T05:54:12.866Z,102376.75
2022-08-07T05:56:12.338Z,102384.88
2022-08-07T05:58:52.460Z,102384.38
2022-08-07T06:01:35.863Z,102389.38
2022-08-07T06:04:10.637Z,102398.84
2022-08-07T06:06:46.272Z,102403.53
2022-08-07T06:09:20.724Z,102388.13
2022-08-07T06:12:15.441Z,102393.06
2022-08-07T06:14:49.445Z,102384.28
2022-08-07T06:17:30.408Z,102390.41
2022-08-07T06:20:12.821Z,102401.53
2022-08-07T06:23:02.495Z,102405.34
2022-08-07T06:25:54.413Z,102357.16
2022-08-07T06:28:29.421Z,102373.44
2022-08-07T06:31:02.050Z,102382.94
2022-08-07T06:33:36.644Z,102387.53
2022-08-07T06:36:13.820Z,102400.53
2022-08-07T06:38:58.688Z,102392.53
2022-08-07T06:42:06.711Z,102379.75
2022-08-07T06:44:45.897Z,102396.44
2022-08-07T06:47:27.870Z,102385.94
2022-08-07T06:50:12.150Z,102367.13
2022-08-07T06:52:54.060Z,102377.97
2022-08-07T06:56:00.160Z,102381.00
2022-08-07T06:58:28.749Z,102383.19
2022-08-07T07:01:08.022Z,102343.75
2022-08-07T07:03:48.832Z,102369.59
2022-08-07T07:06:29.117Z,102363.00
2022-08-07T07:09:30.900Z,102394.28
2022-08-07T07:12:48.587Z,102376.75
2022-08-07T07:15:32.725Z,102387.03
2022-08-07T07:18:47.052Z,102374.75
2022-08-07T07:22:05.220Z,102395.75
2022-08-07T07:24:21.178Z,102393.00
2022-08-07T07:26:58.974Z,102395.81
2022-08-07T07:30:09.156Z,102385.53
2022-08-07T07:32:42.669Z,102391.09
2022-08-07T07:35:17.728Z,102404.69
2022-08-07T07:38:02.534Z,102388.75
2022-08-07T07:40:39.441Z,102375.41
2022-08-07T07:43:18.495Z,102384.06
2022-08-07T07:46:37.035Z,102397.22
2022-08-07T07:48:48.685Z,102391.34
2022-08-07T07:51:22.909Z,102390.09
2022-08-07T07:53:58.380Z,102365.34
2022-08-07T07:56:35.523Z,102383.25
2022-08-07T07:59:11.409Z,102377.97
2022-08-07T08:02:02.805Z,102374.22
2022-08-07T08:04:40.041Z,102374.44
2022-08-07T08:07:20.041Z,102374.00
2022-08-07T08:10:05.309Z,102352.16
2022-08-07T08:12:52.413Z,102365.56
2022-08-07T08:15:57.457Z,102360.41
2022-08-07T08:18:32.703Z,102349.38
2022-08-07T08:21:07.541Z,102372.84
2022-08-07T08:23:59.649Z,102373.03
2022-08-07T08:27:00.190Z,102364.38
2022-08-07T08:29:54.260Z,102379.69
2022-08-07T08:32:38.369Z,102370.63
2022-08-07T08:35:19.118Z,102372.16
2022-08-07T08:38:03.352Z,102382.06
2022-08-07T08:40:47.957Z,102376.63
2022-08-07T08:43:42.755Z,102362.13
2022-08-07T08:46:48.952Z,102370.88
2022-08-07T08:49:57.206Z,102367.53
2022-08-07T08:52:57.642Z,102359.44
2022-08-07T08:55:55.495Z,102358.63
2022-08-07T08:59:17.740Z,102371.13
2022-08-07T09:02:11.064Z,102375.81
2022-08-07T09:05:14.648Z,102371.53
2022-08-07T09:08:11.128Z,102378.09
2022-08-07T09:11:50.469Z,102369.94
2022-08-07T09:14:33.973Z,102351.66
2022-08-07T09:17:58.571Z,102364.28
2022-08-07T09:20:58.623Z,102367.84
2022-08-07T09:24:32.815Z,102362.38
2022-08-07T09:28:00.537Z,102356.78
2022-08-07T09:31:09.058Z,102359.19
2022-08-07T09:34:11.563Z,102358.63
2022-08-07T09:37:02.572Z,102306.94
2022-08-07T09:40:14.511Z,102351.97
2022-08-07T09:43:40.228Z,102340.06
2022-08-07T09:47:52.543Z,102350.38
2022-08-07T09:50:37.535Z,102330.75
2022-08-07T09:53:15.667Z,102322.00
2022-08-07T09:56:19.736Z,102335.97
2022-08-07T09:59:35.696Z,102325.69
2022-08-07T10:03:08.193Z,102323.59
2022-08-07T10:06:49.091Z,102322.16
2022-08-07T10:10:03.848Z,102312.63
2022-08-07T10:12:53.635Z,102325.28
2022-08-07T10:15:46.227Z,102310.81
2022-08-07T10:18:42.373Z,102314.63
2022-08-07T10:22:14.137Z,102280.66
2022-08-07T10:24:57.443Z,102305.31
2022-08-07T10:27:56.437Z,102275.44
2022-08-07T10:30:50.595Z,102309.28
2022-08-07T10:34:05.161Z,102304.34
2022-08-07T10:37:48.612Z,102286.41
2022-08-07T10:40:35.656Z,102286.09
2022-08-07T10:43:34.887Z,102291.22
2022-08-07T10:46:19.486Z,102290.41
2022-08-07T10:49:49.485Z,102270.66
2022-08-07T10:52:50.847Z,102278.44
2022-08-07T10:55:44.098Z,102272.72
2022-08-07T10:58:48.484Z,102274.38
2022-08-07T11:01:52.145Z,102256.88
2022-08-07T11:05:35.483Z,102269.19
2022-08-07T11:08:39.607Z,102221.06
2022-08-07T11:11:25.700Z,102260.13
2022-08-07T11:14:46.080Z,102254.53
2022-08-07T11:17:47.938Z,102257.75
2022-08-07T11:20:41.802Z,102251.22
2022-08-07T11:23:49.970Z,102240.41
2022-08-07T11:27:04.768Z,102243.16
2022-08-07T11:30:18.673Z,102236.25
2022-08-07T11:33:08.065Z,102234.88
2022-08-07T11:36:30.770Z,102243.13
2022-08-07T11:39:19.950Z,102234.56
2022-08-07T11:42:23.226Z,102235.63
2022-08-07T11:45:35.771Z,102226.88
2022-08-07T11:48:37.487Z,102223.50
2022-08-07T11:51:48.756Z,102226.38
2022-08-07T11:54:42.072Z,102209.19
2022-08-07T11:57:59.599Z,102224.25
2022-08-07T12:01:08.151Z,102209.09
2022-08-07T12:04:29.431Z,102220.66
2022-08-07T12:07:39.057Z,102204.91
2022-08-07T12:10:45.053Z,102209.53
2022-08-07T12:13:47.548Z,102208.28
2022-08-07T12:16:30.025Z,102204.50
2022-08-07T12:19:22.185Z,102162.88
2022-08-07T12:22:37.822Z,102193.22
2022-08-07T12:26:00.801Z,102197.97
2022-08-07T12:29:03.000Z,102195.75
2022-08-07T12:32:02.309Z,102202.41
2022-08-07T12:34:42.085Z,102196.59
2022-08-07T12:37:28.311Z,102177.16
2022-08-07T12:40:47.492Z,102196.69
2022-08-07T12:43:58.766Z,102185.47
2022-08-07T12:46:34.547Z,102189.81
2022-08-07T12:49:51.586Z,102188.25
2022-08-07T12:53:05.346Z,102181.28
2022-08-07T12:56:03.816Z,102181.06
2022-08-07T12:58:43.924Z,102181.16
2022-08-07T13:02:00.456Z,102180.63
2022-08-07T13:06:04.633Z,102164.84
2022-08-07T13:08:28.010Z,102175.84
2022-08-07T13:11:14.211Z,102167.09
2022-08-07T13:14:23.025Z,102160.38
2022-08-07T13:17:13.195Z,102152.53
2022-08-07T13:20:12.053Z,102141.31
2022-08-07T13:24:04.121Z,102162.13
2022-08-07T13:26:26.795Z,102146.16
2022-08-07T13:29:15.144Z,102141.53
2022-08-07T13:32:32.352Z,102163.28
2022-08-07T13:35:59.870Z,102148.75
2022-08-07T13:38:41.962Z,102147.47
2022-08-07T13:41:41.544Z,102149.88
2022-08-07T13:44:26.216Z,102134.06
2022-08-07T13:47:01.816Z,102144.25
2022-08-07T13:50:34.581Z,102139.56
2022-08-07T13:52:43.047Z,102124.00
2022-08-07T13:55:26.371Z,102132.84
2022-08-07T13:58:32.141Z,102120.19
2022-08-07T14:01:24.990Z,102121.25
2022-08-07T14:04:08.447Z,102125.59
2022-08-07T14:06:46.032Z,102128.00
2022-08-07T14:10:03.101Z,102100.59
2022-08-07T14:12:49.283Z,102116.69
2022-08-07T14:15:40.080Z,102104.25
2022-08-07T14:18:33.247Z,102115.38
2022-08-07T14:22:00.379Z,102118.66
2022-08-07T14:24:23.274Z,102119.88
2022-08-07T14:28:12.505Z,102100.19
2022-08-07T14:30:14.078Z,102106.00
2022-08-07T14:33:01.736Z,102089.22
2022-08-07T14:35:42.965Z,102100.41
2022-08-07T14:38:31.013Z,102107.44
2022-08-07T14:41:15.011Z,102094.50
2022-08-07T14:43:57.211Z,102095.53
2022-08-07T14:46:37.201Z,102070.94
2022-08-07T14:52:33.955Z,102095.03
2022-08-07T14:55:10.599Z,102078.19
2022-08-07T14:57:58.631Z,102081.97
2022-08-07T15:00:36.016Z,102092.00
2022-08-07T15:06:09.062Z,102072.38
2022-08-07T15:08:54.654Z,102081.22
2022-08-07T15:11:53.999Z,102080.38
2022-08-07T15:14:35.190Z,102023.94
2022-08-07T15:17:55.271Z,102060.25
2022-08-07T15:20:55.196Z,102056.88
2022-08-07T15:26:45.844Z,102033.03
2022-08-07T15:30:06.943Z,102066.91
2022-08-07T15:32:39.965Z,102035.19
2022-08-07T15:35:19.241Z,102074.78
2022-08-07T15:38:18.102Z,102070.72
2022-08-07T15:41:23.883Z,102026.91
2022-08-07T15:44:17.349Z,102014.25
2022-08-07T15:47:16.510Z,102059.34
2022-08-07T15:52:52.334Z,102056.22
2022-08-07T15:55:53.666Z,102059.06
2022-08-07T15:58:37.409Z,102053.16
2022-08-07T16:01:39.390Z,102059.56
2022-08-07T16:04:15.787Z,102045.16
2022-08-07T16:06:54.420Z,102024.00
2022-08-07T16:09:49.448Z,102027.88
2022-08-07T16:13:05.457Z,102038.16
2022-08-07T16:16:43.346Z,102043.31
2022-08-07T16:19:42.949Z,102030.66
2022-08-07T16:23:25.201Z,102052.63
2022-08-07T16:26:31.278Z,102043.59
2022-08-07T16:30:10.784Z,102043.34
2022-08-07T16:32:34.485Z,102009.66
2022-08-07T16:35:52.003Z,102043.38
2022-08-07T16:38:57.289Z,102017.28
2022-08-07T16:42:01.300Z,102038.97
2022-08-07T16:45:24.572Z,102031.59
2022-08-07T16:48:27.808Z,102034.78
2022-08-07T16:52:50.649Z,102035.00
2022-08-07T16:55:24.776Z,102029.16
2022-08-07T16:58:15.876Z,102018.84
2022-08-07T17:01:19.485Z,102032.41
2022-08-07T17:04:51.050Z,102024.50
2022-08-07T17:07:57.990Z,102032.25
2022-08-07T17:10:56.916Z,102028.91
2022-08-07T17:14:19.321Z,102033.31
2022-08-07T17:16:59.565Z,102034.22
2022-08-07T17:20:02.908Z,102023.97
2022-08-07T17:22:56.800Z,102009.75
2022-08-07T17:25:51.443Z,102007.06
2022-08-07T17:28:49.935Z,102024.66
2022-08-07T17:32:02.479Z,102025.31
2022-08-07T17:35:33.177Z,102026.63
2022-08-07T17:38:33.376Z,102018.84
2022-08-07T17:42:01.767Z,102030.31
2022-08-07T17:44:45.296Z,102025.00
2022-08-07T17:47:44.400Z,102025.66
2022-08-07T17:50:30.393Z,101993.72
2022-08-07T17:53:59.600Z,102028.00
2022-08-07T17:56:49.970Z,102018.66
2022-08-07T17:59:50.460Z,102007.88
2022-08-07T18:02:39.595Z,102036.00
2022-08-07T18:06:01.959Z,102033.69
2022-08-07T18:09:00.763Z,102029.50
2022-08-07T18:12:16.032Z,102018.19
2022-08-07T18:14:49.467Z,102030.19
2022-08-07T18:18:47.013Z,102043.94
2022-08-07T18:21:06.439Z,102014.59
2022-08-07T18:23:57.389Z,102053.28
2022-08-07T18:26:53.282Z,102017.75
2022-08-07T18:30:07.510Z,102049.56
2022-08-07T18:33:22.659Z,102052.06
2022-08-07T18:36:32.806Z,102055.19
2022-08-07T18:40:08.770Z,102048.63
2022-08-07T18:43:00.673Z,102057.94
2022-08-07T18:46:24.553Z,102057.88
2022-08-07T18:50:32.314Z,102067.47
2022-08-07T18:52:37.612Z,102062.72
2022-08-07T18:55:56.013Z,102044.50
2022-08-07T18:59:05.601Z,102065.13
2022-08-07T19:02:27.378Z,102067.59
2022-08-07T19:05:22.461Z,102078.13
2022-08-07T19:08:07.012Z,102061.88
2022-08-07T19:10:52.605Z,102063.09
2022-08-07T19:13:43.766Z,102084.13
2022-08-07T19:17:05.040Z,102086.31
2022-08-07T19:20:04.734Z,102093.75
2022-08-07T19:23:18.465Z,102099.47
2022-08-07T19:26:21.972Z,102060.06
2022-08-07T19:31:04.456Z,102075.72
2022-08-07T19:32:18.771Z,102077.72
2022-08-07T19:35:11.834Z,102103.72
2022-08-07T19:38:03.332Z,102079.41
2022-08-07T19:40:49.647Z,102098.72
2022-08-07T19:43:50.051Z,102101.34
2022-08-07T19:46:31.182Z,102074.16
2022-08-07T19:49:18.821Z,102114.19
2022-08-07T19:52:18.011Z,102119.50
2022-08-07T19:55:04.237Z,102098.44
2022-08-07T19:58:02.984Z,102102.09
2022-08-07T20:00:54.066Z,102124.13
2022-08-07T20:03:35.707Z,102120.06
2022-08-07T20:06:25.002Z,102106.81
2022-08-07T20:09:06.271Z,102129.81
2022-08-07T20:12:22.750Z,102128.19
2022-08-07T20:14:58.714Z,102079.31
2022-08-07T20:17:38.680Z,102124.06
2022-08-07T20:20:15.140Z,102119.16
2022-08-07T20:22:52.458Z,102083.88
2022-08-07T20:25:27.938Z,102110.78
2022-08-07T20:28:11.309Z,102133.78
2022-08-07T20:30:47.481Z,102139.50
2022-08-07T20:33:38.197Z,102133.19
2022-08-07T20:36:17.017Z,102128.22
2022-08-07T20:39:00.241Z,102131.22
2022-08-07T20:41:48.249Z,102145.84
2022-08-07T20:44:35.152Z,102149.81
2022-08-07T20:47:10.750Z,102146.06
2022-08-07T20:50:01.029Z,102143.09
2022-08-07T20:52:52.023Z,102136.09
2022-08-07T20:55:28.063Z,102137.09
2022-08-07T20:58:11.826Z,102128.19
2022-08-07T21:01:01.892Z,102120.81
2022-08-07T21:03:45.097Z,102130.34
2022-08-07T21:06:36.397Z,102154.91
2022-08-07T21:09:15.126Z,102116.03
2022-08-07T21:11:53.366Z,102140.06
2022-08-07T21:14:35.303Z,102155.03
2022-08-07T21:18:01.876Z,102142.94
2022-08-07T21:20:29.550Z,102144.28
2022-08-07T21:23:15.423Z,102135.59
2022-08-07T21:26:20.589Z,102141.16
2022-08-07T21:29:03.726Z,102131.84
2022-08-07T21:32:46.796Z,102149.94
2022-08-07T21:36:04.191Z,102139.09
2022-08-07T21:38:46.257Z,102136.06
2022-08-07T21:42:01.413Z,102150.41
2022-08-07T21:44:56.665Z,102150.69
2022-08-07T21:47:41.416Z,102123.59
2022-08-07T21:50:38.598Z,102151.66
2022-08-07T21:53:26.920Z,102161.16
2022-08-07T21:56:35.679Z,102159.69
2022-08-07T22:00:04.240Z,102160.16
2022-08-07T22:02:59.092Z,102146.47
2022-08-07T22:05:49.710Z,102164.59
2022-08-07T22:08:31.157Z,102154.38
2022-08-07T22:11:08.356Z,102170.91
2022-08-07T22:13:51.882Z,102147.25
2022-08-07T22:16:47.718Z,102172.50
2022-08-07T22:19:42.389Z,102171.00
2022-08-07T22:22:28.642Z,102175.81
2022-08-07T22:25:13.029Z,102186.41
2022-08-07T22:28:30.963Z,102178.56
2022-08-07T22:31:56.407Z,102178.94
2022-08-07T22:34:28.855Z,102170.38
2022-08-07T22:37:20.976Z,102192.09
2022-08-07T22:40:18.681Z,102181.22
2022-08-07T22:43:24.015Z,102196.69
2022-08-07T22:47:06.121Z,102199.84
2022-08-07T22:50:33.207Z,102198.22
2022-08-07T22:54:06.775Z,102201.50
2022-08-07T22:57:16.970Z,102204.66
2022-08-07T22:59:55.470Z,102191.75
2022-08-07T23:03:01.080Z,102195.34
2022-08-07T23:06:09.556Z,102202.84
2022-08-07T23:10:00.759Z,102211.94
2022-08-07T23:12:20.826Z,102211.06
2022-08-07T23:16:05.969Z,102211.84
2022-08-07T23:19:13.933Z,102209.06
2022-08-07T23:22:08.800Z,102208.56
2022-08-07T23:25:28.162Z,102190.47
2022-08-07T23:29:01.837Z,102211.81
2022-08-07T23:34:18.823Z,102195.19
2022-08-07T23:35:22.482Z,102203.13
2022-08-07T23:38:10.834Z,102195.19
2022-08-07T23:41:12.270Z,102188.97
2022-08-07T23:44:29.481Z,102196.84
2022-08-07T23:47:22.930Z,102176.81
2022-08-07T23:50:41.225Z,102203.13
2022-08-07T23:53:56.034Z,102207.50
2022-08-07T23:56:56.536Z,102192.19
